createdAt,value
2023-01-31T00:01:51.369Z,73.25
2023-01-31T00:04:19.008Z,73.26
2023-01-31T00:06:50.705Z,73.39
2023-01-31T00:09:18.961Z,73.36
2023-01-31T00:11:46.567Z,73.43
2023-01-31T00:14:19.603Z,73.50
2023-01-31T00:16:47.895Z,73.90
2023-01-31T00:19:15.559Z,73.60
2023-01-31T00:21:44.667Z,73.56
2023-01-31T00:24:13.777Z,73.61
2023-01-31T00:26:41.556Z,73.77
2023-01-31T00:29:09.830Z,73.85
2023-01-31T00:31:37.924Z,73.57
2023-01-31T00:34:08.157Z,73.50
2023-01-31T00:36:35.987Z,73.56
2023-01-31T00:39:07.142Z,73.60
2023-01-31T00:41:37.882Z,73.63
2023-01-31T00:44:06.766Z,73.71
2023-01-31T00:46:35.857Z,73.59
2023-01-31T00:49:04.636Z,73.65
2023-01-31T00:51:32.161Z,73.68
2023-01-31T00:53:59.916Z,73.84
2023-01-31T00:56:27.333Z,74.00
2023-01-31T00:58:55.203Z,73.65
2023-01-31T01:01:26.610Z,73.58
2023-01-31T01:03:56.528Z,73.34
2023-01-31T01:06:24.559Z,73.17
2023-01-31T01:08:52.472Z,73.01
2023-01-31T01:11:27.377Z,73.06
2023-01-31T01:13:56.464Z,73.14
2023-01-31T01:16:28.035Z,73.33
2023-01-31T01:18:55.648Z,73.43
2023-01-31T01:21:29.879Z,73.52
2023-01-31T01:24:02.138Z,73.62
2023-01-31T01:26:32.851Z,73.73
2023-01-31T01:29:02.161Z,73.79
2023-01-31T01:31:31.431Z,73.77
2023-01-31T01:34:12.867Z,73.82
2023-01-31T01:36:40.504Z,73.90
2023-01-31T01:39:11.576Z,73.91
2023-01-31T01:41:40.787Z,73.83
2023-01-31T01:44:50.036Z,73.75
2023-01-31T01:47:44.144Z,73.70
2023-01-31T01:50:29.175Z,73.73
2023-01-31T01:53:01.652Z,73.61
2023-01-31T01:55:42.560Z,73.44
2023-01-31T01:58:14.845Z,73.43
2023-01-31T02:00:44.716Z,73.50
2023-01-31T02:03:12.746Z,73.54
2023-01-31T02:05:51.049Z,73.54
2023-01-31T02:08:22.558Z,73.50
2023-01-31T02:11:18.632Z,73.57
2023-01-31T02:13:49.413Z,73.55
2023-01-31T02:16:17.328Z,73.68
2023-01-31T02:18:47.712Z,73.68
2023-01-31T02:21:41.931Z,73.66
2023-01-31T02:24:28.328Z,73.54
2023-01-31T02:27:39.885Z,73.63
2023-01-31T02:30:33.861Z,73.46
2023-01-31T02:33:33.053Z,73.39
2023-01-31T02:36:41.818Z,73.39
2023-01-31T02:39:30.801Z,73.44
2023-01-31T02:42:32.525Z,73.47
2023-01-31T02:45:30.884Z,73.56
2023-01-31T02:48:26.611Z,73.59
2023-01-31T02:51:03.356Z,73.39
2023-01-31T02:53:45.234Z,73.41
2023-01-31T02:56:26.060Z,73.32
2023-01-31T02:59:10.286Z,73.24
2023-01-31T03:01:43.470Z,73.17
2023-01-31T03:04:13.793Z,73.12
2023-01-31T03:06:59.819Z,73.11
2023-01-31T03:09:42.796Z,73.08
2023-01-31T03:12:18.202Z,73.09
2023-01-31T03:15:13.221Z,73.17
2023-01-31T03:18:10.563Z,73.24
2023-01-31T03:20:43.717Z,73.34
2023-01-31T03:23:16.184Z,73.33
2023-01-31T03:25:47.229Z,73.36
2023-01-31T03:28:20.354Z,73.40
2023-01-31T03:30:53.367Z,73.39
2023-01-31T03:33:29.388Z,73.43
2023-01-31T03:36:17.827Z,73.64
2023-01-31T03:38:58.588Z,73.61
2023-01-31T03:41:53.473Z,73.61
2023-01-31T03:44:55.865Z,73.48
2023-01-31T03:47:34.807Z,73.52
2023-01-31T03:50:28.869Z,73.70
2023-01-31T03:53:17.366Z,73.56
2023-01-31T03:56:17.034Z,73.54
2023-01-31T03:58:50.463Z,73.42
2023-01-31T04:01:21.242Z,73.51
2023-01-31T04:03:56.371Z,73.40
2023-01-31T04:06:24.176Z,73.42
2023-01-31T04:08:51.964Z,73.55
2023-01-31T04:11:23.603Z,73.51
2023-01-31T04:13:51.205Z,73.37
2023-01-31T04:16:18.901Z,73.17
2023-01-31T04:18:46.306Z,73.07
2023-01-31T04:21:14.838Z,73.17
2023-01-31T04:23:42.847Z,73.11
2023-01-31T04:26:10.395Z,72.95
2023-01-31T04:28:38.302Z,72.96
2023-01-31T04:31:05.926Z,72.41
2023-01-31T04:33:33.459Z,72.32
2023-01-31T04:36:01.498Z,72.05
2023-01-31T04:38:29.165Z,72.05
2023-01-31T04:40:56.564Z,72.22
2023-01-31T04:43:24.410Z,72.16
2023-01-31T04:45:52.095Z,72.37
2023-01-31T04:48:19.503Z,72.54
2023-01-31T04:50:47.017Z,72.59
2023-01-31T04:53:15.077Z,72.46
2023-01-31T04:55:42.400Z,72.45
2023-01-31T04:58:10.023Z,72.67
2023-01-31T05:00:37.334Z,72.61
2023-01-31T05:03:04.801Z,72.66
2023-01-31T05:05:35.964Z,72.75
2023-01-31T05:08:03.216Z,72.76
2023-01-31T05:10:31.569Z,72.88
2023-01-31T05:12:59.231Z,72.78
2023-01-31T05:15:26.921Z,72.60
2023-01-31T05:18:04.721Z,72.85
2023-01-31T05:20:37.833Z,72.76
2023-01-31T05:23:05.314Z,72.50
2023-01-31T05:25:34.740Z,72.36
2023-01-31T05:28:03.247Z,72.48
2023-01-31T05:30:31.499Z,72.48
2023-01-31T05:32:59.716Z,72.44
2023-01-31T05:35:27.496Z,72.51
2023-01-31T05:37:55.643Z,72.44
2023-01-31T05:40:23.788Z,72.50
2023-01-31T05:43:02.289Z,72.49
2023-01-31T05:45:31.422Z,72.60
2023-01-31T05:47:59.296Z,72.65
2023-01-31T05:50:26.974Z,72.56
2023-01-31T05:52:59.193Z,72.48
2023-01-31T05:55:27.716Z,72.67
2023-01-31T05:57:56.010Z,72.77
2023-01-31T06:00:24.482Z,72.88
2023-01-31T06:02:52.078Z,72.91
2023-01-31T06:05:19.910Z,72.92
2023-01-31T06:07:47.661Z,72.86
2023-01-31T06:10:15.292Z,72.99
2023-01-31T06:12:42.937Z,72.90
2023-01-31T06:15:11.476Z,72.79
2023-01-31T06:17:38.932Z,72.76
2023-01-31T06:20:07.140Z,72.75
2023-01-31T06:22:34.580Z,72.79
2023-01-31T06:25:02.212Z,72.80
2023-01-31T06:27:33.169Z,72.70
2023-01-31T06:30:01.239Z,72.59
2023-01-31T06:32:28.732Z,72.43
2023-01-31T06:34:56.351Z,72.47
2023-01-31T06:37:23.741Z,72.48
2023-01-31T06:39:51.370Z,72.55
2023-01-31T06:42:19.136Z,72.55
2023-01-31T06:44:46.877Z,72.51
2023-01-31T06:47:14.536Z,72.33
2023-01-31T06:49:41.860Z,72.06
2023-01-31T06:52:09.564Z,72.01
2023-01-31T06:54:37.064Z,72.19
2023-01-31T06:57:04.548Z,72.33
2023-01-31T06:59:32.683Z,72.30
2023-01-31T07:02:00.223Z,72.14
2023-01-31T07:04:27.660Z,71.91
2023-01-31T07:06:55.223Z,72.08
2023-01-31T07:09:23.169Z,72.09
2023-01-31T07:11:50.600Z,72.22
2023-01-31T07:14:17.974Z,72.18
2023-01-31T07:16:45.388Z,72.06
2023-01-31T07:19:13.161Z,72.12
2023-01-31T07:21:41.692Z,72.12
2023-01-31T07:24:09.543Z,72.40
2023-01-31T07:26:37.144Z,72.54
2023-01-31T07:29:04.395Z,72.30
2023-01-31T07:31:32.475Z,72.12
2023-01-31T07:34:00.515Z,72.21
2023-01-31T07:36:28.334Z,72.32
2023-01-31T07:38:57.814Z,72.20
2023-01-31T07:41:26.232Z,72.31
2023-01-31T07:43:53.723Z,72.38
2023-01-31T07:46:21.279Z,72.50
2023-01-31T07:48:48.736Z,72.42
2023-01-31T07:51:16.382Z,72.67
2023-01-31T07:53:43.824Z,72.72
